createdAt,value
2023-01-13T00:01:23.019Z,5.92
2023-01-13T00:03:50.110Z,5.99
2023-01-13T00:06:19.146Z,6.18
2023-01-13T00:08:49.869Z,5.91
2023-01-13T00:11:17.154Z,6.05
2023-01-13T00:13:43.953Z,6.23
2023-01-13T00:16:13.022Z,6.11
2023-01-13T00:18:39.832Z,6.21
2023-01-13T00:21:17.940Z,6.25
2023-01-13T00:23:45.406Z,6.29
2023-01-13T00:26:18.300Z,6.26
2023-01-13T00:28:45.107Z,6.15
2023-01-13T00:31:17.699Z,6.05
2023-01-13T00:33:44.550Z,6.36
2023-01-13T00:36:14.018Z,6.49
2023-01-13T00:38:42.925Z,6.45
2023-01-13T00:41:14.590Z,6.54
2023-01-13T00:43:41.611Z,6.46
2023-01-13T00:46:10.135Z,6.40
2023-01-13T00:48:39.066Z,6.23
2023-01-13T00:51:18.064Z,6.47
2023-01-13T00:53:47.413Z,6.15
2023-01-13T00:56:24.410Z,6.17
2023-01-13T00:58:58.786Z,6.44
2023-01-13T01:01:26.185Z,6.28
2023-01-13T01:03:54.456Z,6.42
2023-01-13T01:06:26.028Z,6.29
2023-01-13T01:08:54.729Z,6.37
2023-01-13T01:11:26.976Z,6.23
2023-01-13T01:13:55.800Z,6.44
2023-01-13T01:16:25.564Z,6.34
2023-01-13T01:18:53.944Z,6.34
2023-01-13T01:21:22.165Z,6.57
2023-01-13T01:23:48.925Z,6.38
2023-01-13T01:26:18.847Z,6.47
2023-01-13T01:28:45.962Z,6.34
2023-01-13T01:31:16.586Z,6.15
2023-01-13T01:33:43.704Z,6.17
2023-01-13T01:36:12.560Z,6.13
2023-01-13T01:38:39.509Z,6.21
2023-01-13T01:41:06.741Z,6.38
2023-01-13T01:44:04.530Z,6.39
2023-01-13T01:46:36.041Z,6.42
2023-01-13T01:49:26.419Z,6.47
2023-01-13T01:51:59.183Z,6.25
2023-01-13T01:54:34.072Z,6.35
2023-01-13T01:57:01.369Z,6.42
2023-01-13T01:59:30.052Z,6.56
2023-01-13T02:01:56.848Z,6.30
2023-01-13T02:04:29.876Z,6.33
2023-01-13T02:06:57.412Z,6.13
2023-01-13T02:09:25.363Z,6.24
2023-01-13T02:12:10.572Z,6.14
2023-01-13T02:14:39.592Z,6.19
2023-01-13T02:17:30.801Z,6.26
2023-01-13T02:20:45.669Z,5.82
2023-01-13T02:23:46.419Z,5.93
2023-01-13T02:26:16.129Z,6.22
2023-01-13T02:29:25.293Z,6.13
2023-01-13T02:31:58.626Z,5.86
2023-01-13T02:34:36.319Z,6.00
2023-01-13T02:37:03.285Z,5.99
2023-01-13T02:39:51.805Z,6.15
2023-01-13T02:42:44.489Z,6.13
2023-01-13T02:45:26.947Z,6.13
2023-01-13T02:47:58.575Z,6.30
2023-01-13T02:50:32.708Z,6.22
2023-01-13T02:53:05.986Z,6.33
2023-01-13T02:55:39.182Z,6.23
2023-01-13T02:58:09.640Z,6.33
2023-01-13T03:00:37.109Z,6.44
2023-01-13T03:03:03.908Z,6.59
2023-01-13T03:05:32.865Z,6.48
2023-01-13T03:08:42.819Z,6.35
2023-01-13T03:11:13.242Z,6.54
2023-01-13T03:14:08.854Z,6.36
2023-01-13T03:17:11.991Z,6.41
2023-01-13T03:19:50.740Z,6.46
2023-01-13T03:22:20.263Z,6.46
2023-01-13T03:24:53.436Z,6.40
2023-01-13T03:27:33.605Z,6.17
2023-01-13T03:30:07.275Z,6.08
2023-01-13T03:32:41.033Z,6.13
2023-01-13T03:35:13.240Z,6.03
2023-01-13T03:37:46.389Z,5.97
2023-01-13T03:40:17.394Z,5.92
2023-01-13T03:43:08.461Z,5.84
2023-01-13T03:45:39.536Z,6.04
2023-01-13T03:48:12.952Z,5.88
2023-01-13T03:50:51.875Z,5.93
2023-01-13T03:53:24.342Z,5.87
2023-01-13T03:55:59.564Z,5.96
2023-01-13T03:58:35.345Z,5.87
2023-01-13T04:01:13.294Z,5.83
2023-01-13T04:03:56.737Z,5.76
2023-01-13T04:06:34.849Z,5.98
2023-01-13T04:09:26.079Z,5.75
2023-01-13T04:12:03.877Z,5.76
2023-01-13T04:14:30.877Z,5.64
2023-01-13T04:16:57.858Z,5.70
2023-01-13T04:19:25.061Z,5.70
2023-01-13T04:21:51.736Z,5.83
2023-01-13T04:24:18.373Z,5.81
2023-01-13T04:26:44.862Z,5.92
2023-01-13T04:29:11.967Z,6.04
2023-01-13T04:31:40.869Z,5.94
2023-01-13T04:34:10.073Z,5.95
2023-01-13T04:36:36.883Z,5.87
2023-01-13T04:39:04.104Z,5.97
2023-01-13T04:41:53.609Z,6.03
2023-01-13T04:44:20.355Z,6.07
2023-01-13T04:46:47.427Z,6.05
2023-01-13T04:49:14.208Z,6.01
2023-01-13T04:51:40.915Z,6.21
2023-01-13T04:54:07.466Z,5.94
2023-01-13T04:56:34.242Z,5.92
2023-01-13T04:59:01.003Z,5.97
2023-01-13T05:01:27.753Z,5.90
2023-01-13T05:03:54.666Z,6.15
2023-01-13T05:06:21.302Z,6.05
2023-01-13T05:08:47.872Z,6.11
2023-01-13T05:11:34.611Z,5.92
2023-01-13T05:14:19.737Z,5.85
2023-01-13T05:17:03.214Z,5.77
2023-01-13T05:19:33.438Z,5.93
2023-01-13T05:22:19.772Z,5.88
2023-01-13T05:25:05.199Z,5.77
2023-01-13T05:27:32.313Z,5.65
2023-01-13T05:29:59.083Z,5.73
2023-01-13T05:32:28.050Z,5.69
2023-01-13T05:34:56.072Z,5.63
2023-01-13T05:37:23.486Z,5.56
2023-01-13T05:40:08.818Z,5.59
2023-01-13T05:42:54.267Z,5.76
2023-01-13T05:45:21.276Z,5.73
2023-01-13T05:47:48.032Z,5.68
2023-01-13T05:50:15.282Z,5.95
2023-01-13T05:52:42.220Z,6.01
2023-01-13T05:55:09.538Z,5.85
2023-01-13T05:57:36.307Z,5.84
2023-01-13T06:00:03.366Z,6.31
2023-01-13T06:02:38.421Z,5.97
2023-01-13T06:05:05.379Z,5.81
2023-01-13T06:07:32.070Z,5.85
2023-01-13T06:09:58.610Z,5.83
2023-01-13T06:12:25.359Z,5.91
2023-01-13T06:14:51.861Z,5.71
2023-01-13T06:17:18.828Z,5.54
2023-01-13T06:19:45.554Z,5.66
2023-01-13T06:22:13.575Z,5.86
2023-01-13T06:24:40.344Z,5.65
2023-01-13T06:27:08.933Z,5.84
2023-01-13T06:29:35.883Z,6.38
2023-01-13T06:32:07.149Z,6.05
2023-01-13T06:34:38.026Z,5.97
2023-01-13T06:37:05.271Z,6.27
2023-01-13T06:39:33.944Z,6.20
2023-01-13T06:42:19.178Z,5.97
2023-01-13T06:44:46.078Z,6.01
2023-01-13T06:47:12.678Z,5.98
2023-01-13T06:49:39.320Z,6.03
2023-01-13T06:52:06.100Z,5.94
2023-01-13T06:54:32.914Z,5.92
2023-01-13T06:57:01.785Z,5.64
2023-01-13T06:59:28.629Z,5.88
2023-01-13T07:01:55.574Z,5.63
2023-01-13T07:04:22.519Z,5.41
2023-01-13T07:06:49.228Z,5.60
2023-01-13T07:09:15.794Z,5.69
2023-01-13T07:11:42.551Z,5.77
2023-01-13T07:14:31.001Z,5.95
2023-01-13T07:16:57.764Z,5.98
2023-01-13T07:19:24.473Z,5.99
2023-01-13T07:21:52.582Z,5.78
2023-01-13T07:24:20.179Z,5.89
2023-01-13T07:26:46.920Z,5.97
2023-01-13T07:29:13.978Z,5.85
2023-01-13T07:31:40.649Z,5.94
2023-01-13T07:34:07.836Z,6.23
2023-01-13T07:36:34.829Z,6.18
2023-01-13T07:39:01.694Z,6.08
2023-01-13T07:41:47.762Z,6.12
2023-01-13T07:44:14.700Z,6.25
2023-01-13T07:46:41.792Z,6.26
2023-01-13T07:49:09.278Z,6.21
2023-01-13T07:51:39.763Z,6.25
2023-01-13T07:54:06.558Z,6.37
2023-01-13T07:56:33.460Z,6.24
2023-01-13T07:59:00.909Z,6.12
2023-01-13T08:01:28.537Z,6.34
2023-01-13T08:03:56.379Z,6.24
2023-01-13T08:06:23.576Z,6.36
2023-01-13T08:08:53.065Z,6.08
2023-01-13T08:11:22.144Z,6.48
2023-01-13T08:13:50.256Z,6.04
2023-01-13T08:16:16.981Z,6.20
2023-01-13T08:18:43.802Z,5.91
2023-01-13T08:21:13.304Z,6.36
2023-01-13T08:23:41.442Z,6.49
2023-01-13T08:26:11.221Z,6.43
2023-01-13T08:28:40.524Z,6.19
2023-01-13T08:31:12.308Z,6.22
2023-01-13T08:33:39.445Z,6.53
2023-01-13T08:36:08.080Z,6.40
2023-01-13T08:38:36.563Z,6.40
2023-01-13T08:41:15.810Z,6.61
2023-01-13T08:43:42.599Z,6.54
2023-01-13T08:46:09.435Z,6.84
2023-01-13T08:48:36.655Z,6.97
2023-01-13T08:51:06.169Z,6.89
2023-01-13T08:53:33.076Z,6.50
2023-01-13T08:55:59.740Z,6.81
2023-01-13T08:58:26.732Z,6.59
2023-01-13T09:00:53.547Z,6.81
2023-01-13T09:03:20.221Z,6.55
2023-01-13T09:05:46.818Z,6.74
2023-01-13T09:08:13.643Z,6.84
2023-01-13T09:10:40.617Z,6.84
2023-01-13T09:13:11.961Z,6.81
2023-01-13T09:15:43.754Z,6.71
2023-01-13T09:18:11.126Z,7.07
2023-01-13T09:20:37.935Z,7.00
2023-01-13T09:23:05.649Z,6.99
2023-01-13T09:25:32.745Z,6.74
2023-01-13T09:27:59.348Z,7.11
2023-01-13T09:30:26.100Z,7.47
2023-01-13T09:33:12.769Z,7.46
2023-01-13T09:35:39.424Z,7.45
2023-01-13T09:38:06.966Z,7.30
2023-01-13T09:40:33.865Z,7.54
2023-01-13T09:43:33.304Z,7.22
2023-01-13T09:46:05.913Z,7.85
2023-01-13T09:48:51.756Z,7.41
2023-01-13T09:51:34.013Z,7.02
2023-01-13T09:54:16.595Z,7.30
2023-01-13T09:56:43.471Z,7.46
2023-01-13T09:59:12.363Z,7.41
2023-01-13T10:01:54.814Z,7.66
2023-01-13T10:04:21.779Z,7.52
2023-01-13T10:06:52.332Z,7.44
2023-01-13T10:09:23.953Z,7.45
2023-01-13T10:12:10.724Z,7.61
2023-01-13T10:15:13.321Z,7.84
2023-01-13T10:17:50.598Z,7.60
2023-01-13T10:20:22.717Z,7.60
2023-01-13T10:23:13.798Z,7.49
2023-01-13T10:25:49.192Z,7.75
2023-01-13T10:28:19.480Z,7.41
2023-01-13T10:30:47.840Z,7.22
2023-01-13T10:33:27.721Z,7.18
2023-01-13T10:36:00.837Z,7.18
2023-01-13T10:38:39.940Z,7.26
2023-01-13T10:41:15.947Z,7.18
2023-01-13T10:43:51.759Z,7.44
2023-01-13T10:46:20.283Z,7.47
2023-01-13T10:48:58.565Z,7.37
2023-01-13T10:51:37.255Z,7.54
2023-01-13T10:54:03.808Z,7.49
2023-01-13T10:56:33.574Z,7.53
2023-01-13T10:59:29.881Z,7.45
2023-01-13T11:02:25.443Z,7.79
2023-01-13T11:04:52.999Z,7.46
2023-01-13T11:07:36.719Z,7.47
2023-01-13T11:10:03.794Z,7.91
2023-01-13T11:12:32.847Z,7.58
2023-01-13T11:15:09.633Z,7.80
2023-01-13T11:17:45.462Z,7.74
2023-01-13T11:20:12.251Z,7.47
2023-01-13T11:22:51.390Z,7.33
2023-01-13T11:25:42.156Z,7.25
2023-01-13T11:28:37.813Z,7.26
2023-01-13T11:31:30.159Z,7.29
2023-01-13T11:34:11.439Z,7.32
2023-01-13T11:36:43.518Z,7.48
2023-01-13T11:39:30.097Z,7.58
2023-01-13T11:42:21.723Z,7.67
2023-01-13T11:45:19.422Z,7.83
2023-01-13T11:47:49.107Z,7.52
2023-01-13T11:50:36.989Z,7.70
2023-01-13T11:53:18.427Z,7.54
2023-01-13T11:55:57.318Z,7.53
2023-01-13T11:58:50.539Z,7.65
2023-01-13T12:01:47.103Z,7.73
2023-01-13T12:04:23.044Z,7.75
2023-01-13T12:07:07.392Z,8.04
2023-01-13T12:10:16.031Z,7.99
2023-01-13T12:13:24.198Z,8.27
2023-01-13T12:16:17.159Z,8.18
2023-01-13T12:19:18.582Z,8.11
2023-01-13T12:21:57.080Z,8.06
2023-01-13T12:24:30.130Z,8.30
2023-01-13T12:27:19.100Z,8.18
2023-01-13T12:29:49.326Z,8.21
2023-01-13T12:32:21.148Z,8.26
2023-01-13T12:35:16.780Z,8.09
2023-01-13T12:38:08.198Z,8.32
2023-01-13T12:40:56.372Z,8.23
2023-01-13T12:43:43.187Z,8.54
2023-01-13T12:46:19.147Z,8.84
2023-01-13T12:48:45.949Z,8.74
2023-01-13T12:51:33.514Z,8.69
2023-01-13T12:54:02.184Z,8.57
2023-01-13T12:56:45.294Z,8.41
2023-01-13T12:59:21.427Z,7.94
2023-01-13T13:02:12.902Z,7.85
2023-01-13T13:04:49.889Z,7.79
2023-01-13T13:07:31.815Z,7.78
2023-01-13T13:10:05.978Z,7.28
2023-01-13T13:13:00.314Z,7.25
2023-01-13T13:15:29.520Z,7.32
2023-01-13T13:17:59.451Z,7.47
2023-01-13T13:20:53.762Z,7.08
2023-01-13T13:23:58.780Z,6.48
2023-01-13T13:26:45.742Z,5.91
2023-01-13T13:29:27.665Z,5.82
2023-01-13T13:32:07.563Z,5.90
2023-01-13T13:34:55.469Z,5.54
2023-01-13T13:37:54.342Z,5.63
2023-01-13T13:40:39.658Z,5.79
2023-01-13T13:43:32.054Z,5.94
2023-01-13T13:46:17.543Z,6.01
2023-01-13T13:48:55.505Z,5.79
2023-01-13T13:51:22.642Z,5.95
2023-01-13T13:53:49.285Z,5.78
2023-01-13T13:56:20.802Z,5.74
2023-01-13T13:58:49.010Z,5.98
2023-01-13T14:01:30.073Z,6.22
2023-01-13T14:04:25.998Z,5.97
2023-01-13T14:06:58.724Z,6.38
2023-01-13T14:09:28.728Z,6.20
2023-01-13T14:12:01.089Z,6.12
2023-01-13T14:14:29.037Z,5.90
2023-01-13T14:16:56.318Z,5.74
2023-01-13T14:19:35.637Z,6.03
2023-01-13T14:22:04.671Z,5.93
2023-01-13T14:24:32.320Z,5.93
2023-01-13T14:27:15.900Z,5.64
2023-01-13T14:29:42.971Z,5.56
2023-01-13T14:32:15.408Z,5.56
2023-01-13T14:34:42.207Z,5.84
2023-01-13T14:37:31.532Z,5.54
2023-01-13T14:39:58.308Z,5.55
2023-01-13T14:42:27.670Z,5.59
2023-01-13T14:44:56.341Z,5.30
2023-01-13T14:47:26.706Z,5.23
2023-01-13T14:50:28.180Z,5.54
2023-01-13T14:52:57.042Z,5.40
2023-01-13T14:55:38.668Z,5.79
2023-01-13T14:58:21.965Z,5.41
2023-01-13T15:00:49.980Z,5.58
2023-01-13T15:03:18.914Z,5.31
2023-01-13T15:05:51.807Z,5.41
2023-01-13T15:08:44.689Z,5.42
2023-01-13T15:11:24.822Z,5.59
2023-01-13T15:14:03.781Z,5.57
2023-01-13T15:16:34.620Z,5.59
2023-01-13T15:19:01.685Z,5.69
2023-01-13T15:21:28.496Z,5.81
2023-01-13T15:23:55.388Z,5.72
2023-01-13T15:26:29.804Z,5.62
2023-01-13T15:29:00.723Z,5.30
2023-01-13T15:31:28.301Z,5.51
2023-01-13T15:33:55.108Z,5.62
2023-01-13T15:36:31.013Z,5.47
2023-01-13T15:38:59.619Z,5.41
2023-01-13T15:41:45.948Z,5.32
2023-01-13T15:44:32.835Z,5.34
2023-01-13T15:47:02.796Z,5.09
2023-01-13T15:49:35.151Z,5.18
2023-01-13T15:52:19.350Z,4.91
2023-01-13T15:54:48.363Z,5.11
2023-01-13T15:57:30.124Z,5.30
2023-01-13T16:00:00.279Z,5.16
2023-01-13T16:02:27.558Z,4.90
2023-01-13T16:04:54.827Z,4.83
2023-01-13T16:07:23.712Z,4.91
2023-01-13T16:09:52.359Z,4.75
2023-01-13T16:12:21.056Z,4.85
2023-01-13T16:14:47.767Z,5.04
2023-01-13T16:17:20.298Z,4.84
2023-01-13T16:19:47.475Z,4.86
2023-01-13T16:22:16.152Z,4.75
2023-01-13T16:24:43.154Z,4.75
2023-01-13T16:27:23.056Z,4.85
2023-01-13T16:29:50.968Z,4.71
2023-01-13T16:32:18.264Z,4.76
2023-01-13T16:34:45.092Z,4.65
2023-01-13T16:37:19.475Z,4.94
2023-01-13T16:39:46.292Z,4.88
2023-01-13T16:42:13.039Z,4.79
2023-01-13T16:44:42.431Z,4.61
2023-01-13T16:47:16.665Z,4.57
2023-01-13T16:49:43.559Z,4.50
2023-01-13T16:52:10.283Z,4.52
2023-01-13T16:54:36.974Z,4.50
2023-01-13T16:57:03.781Z,4.46
2023-01-13T16:59:30.475Z,4.71
2023-01-13T17:01:57.519Z,4.69
2023-01-13T17:04:24.500Z,4.73
2023-01-13T17:06:58.381Z,4.73
2023-01-13T17:09:27.882Z,4.68
2023-01-13T17:11:55.893Z,4.74
2023-01-13T17:14:24.914Z,4.72
2023-01-13T17:17:00.146Z,4.78
2023-01-13T17:19:27.141Z,4.63
2023-01-13T17:21:53.954Z,4.57
2023-01-13T17:24:21.055Z,4.31
2023-01-13T17:26:50.373Z,4.26
2023-01-13T17:29:22.263Z,4.14
2023-01-13T17:31:50.580Z,4.18
2023-01-13T17:34:17.774Z,4.16
2023-01-13T17:36:44.483Z,4.14
2023-01-13T17:39:21.820Z,3.96
2023-01-13T17:41:48.601Z,3.90
2023-01-13T17:44:20.786Z,4.12
2023-01-13T17:46:47.687Z,4.10
2023-01-13T17:49:19.589Z,4.21
2023-01-13T17:51:48.314Z,4.21
2023-01-13T17:54:16.081Z,4.17
2023-01-13T17:56:43.541Z,4.09
2023-01-13T17:59:15.240Z,4.04
2023-01-13T18:01:42.409Z,4.09
2023-01-13T18:04:21.797Z,3.93
2023-01-13T18:06:48.976Z,4.09
2023-01-13T18:09:16.776Z,3.98
2023-01-13T18:11:44.494Z,3.88
2023-01-13T18:14:12.328Z,3.87
2023-01-13T18:16:39.138Z,3.96
2023-01-13T18:19:24.936Z,4.03
2023-01-13T18:22:10.679Z,4.01
2023-01-13T18:24:56.192Z,3.99
2023-01-13T18:27:33.361Z,4.04
2023-01-13T18:30:02.756Z,3.99
2023-01-13T18:32:33.546Z,4.00
2023-01-13T18:35:07.290Z,3.93
2023-01-13T18:37:38.826Z,4.09
2023-01-13T18:40:06.777Z,3.85
2023-01-13T18:42:54.321Z,3.61
2023-01-13T18:45:29.660Z,3.84
2023-01-13T18:47:59.337Z,3.61
2023-01-13T18:50:26.326Z,3.73
2023-01-13T18:52:53.004Z,3.90
2023-01-13T18:55:20.721Z,3.92
2023-01-13T18:57:48.202Z,3.56
2023-01-13T19:00:21.339Z,3.68
2023-01-13T19:05:34.285Z,3.55
2023-01-13T19:08:01.007Z,3.49
2023-01-13T19:10:31.840Z,3.60
2023-01-13T19:12:58.722Z,3.47
2023-01-13T19:15:25.474Z,3.65
2023-01-13T19:17:52.020Z,3.35
2023-01-13T19:20:20.038Z,3.51
2023-01-13T19:22:53.758Z,3.60
2023-01-13T19:25:20.902Z,3.57
2023-01-13T19:27:47.527Z,3.44
2023-01-13T19:30:14.575Z,3.72
2023-01-13T19:32:41.455Z,3.83
2023-01-13T19:35:08.825Z,3.69
2023-01-13T19:37:37.148Z,3.66
2023-01-13T19:40:09.350Z,3.53
2023-01-13T19:42:54.946Z,3.75
2023-01-13T19:45:28.290Z,3.50
2023-01-13T19:47:57.132Z,3.67
2023-01-13T19:50:25.027Z,3.73
2023-01-13T19:52:55.371Z,3.50
2023-01-13T19:55:22.681Z,3.53
2023-01-13T19:57:49.525Z,3.16
2023-01-13T20:00:20.998Z,3.19
2023-01-13T20:02:49.263Z,3.10
2023-01-13T20:05:21.313Z,3.16
2023-01-13T20:07:50.057Z,3.15
2023-01-13T20:10:21.332Z,3.23
2023-01-13T20:12:48.435Z,3.27
2023-01-13T20:15:15.143Z,3.20
2023-01-13T20:17:45.624Z,3.32
2023-01-13T20:20:12.497Z,3.17
2023-01-13T20:22:40.110Z,3.45
2023-01-13T20:25:07.979Z,3.60
2023-01-13T20:27:35.003Z,3.59
2023-01-13T20:30:01.695Z,3.43
2023-01-13T20:32:29.075Z,3.59
2023-01-13T20:34:55.788Z,3.62
2023-01-13T20:37:23.434Z,3.40
2023-01-13T20:39:50.089Z,3.41
2023-01-13T20:42:29.179Z,3.46
2023-01-13T20:44:57.128Z,3.29
2023-01-13T20:47:24.059Z,3.32
2023-01-13T20:49:50.918Z,3.21
2023-01-13T20:52:17.665Z,3.08
2023-01-13T20:54:44.231Z,2.93
2023-01-13T20:57:11.936Z,2.84
2023-01-13T20:59:39.621Z,2.91
2023-01-13T21:02:11.736Z,3.20
2023-01-13T21:04:38.448Z,2.99
2023-01-13T21:07:05.339Z,3.28
2023-01-13T21:09:32.369Z,3.26
2023-01-13T21:12:17.683Z,2.98
2023-01-13T21:15:03.046Z,3.19
2023-01-13T21:17:48.356Z,3.12
2023-01-13T21:20:15.560Z,3.15
2023-01-13T21:22:47.029Z,3.20
2023-01-13T21:25:14.964Z,3.12
2023-01-13T21:27:44.418Z,3.11
2023-01-13T21:30:18.135Z,3.21
2023-01-13T21:32:46.251Z,3.06
2023-01-13T21:35:14.107Z,3.24
2023-01-13T21:37:42.315Z,3.16
2023-01-13T21:40:12.849Z,3.20
2023-01-13T21:42:58.156Z,3.11
2023-01-13T21:45:43.507Z,3.25
2023-01-13T21:48:10.258Z,3.41
2023-01-13T21:50:38.237Z,3.24
2023-01-13T21:53:05.261Z,3.37
2023-01-13T21:55:32.868Z,3.43
2023-01-13T21:58:14.188Z,3.18
2023-01-13T22:00:44.784Z,3.25
2023-01-13T22:03:14.321Z,3.24
2023-01-13T22:05:41.037Z,3.59
2023-01-13T22:08:07.626Z,3.33
2023-01-13T22:10:34.567Z,3.49
2023-01-13T22:13:22.554Z,3.32
2023-01-13T22:15:49.264Z,3.43
2023-01-13T22:18:18.148Z,3.53
2023-01-13T22:20:45.363Z,3.34
2023-01-13T22:23:12.181Z,3.38
2023-01-13T22:25:38.864Z,3.25
2023-01-13T22:28:06.139Z,3.32
2023-01-13T22:30:33.270Z,3.38
2023-01-13T22:33:00.741Z,3.20
2023-01-13T22:35:27.505Z,3.64
2023-01-13T22:37:54.163Z,3.28
2023-01-13T22:40:20.960Z,3.22
2023-01-13T22:42:47.656Z,3.47
2023-01-13T22:45:14.538Z,3.17
2023-01-13T22:47:41.412Z,3.42
2023-01-13T22:50:08.594Z,3.53
2023-01-13T22:52:35.783Z,3.46
2023-01-13T22:55:03.158Z,3.29
2023-01-13T22:57:36.088Z,3.41
2023-01-13T23:00:06.323Z,3.50
2023-01-13T23:02:34.681Z,3.56
2023-01-13T23:05:02.978Z,3.43
2023-01-13T23:07:29.679Z,3.39
2023-01-13T23:09:56.283Z,3.67
2023-01-13T23:12:23.167Z,3.56
2023-01-13T23:14:49.787Z,3.76
2023-01-13T23:17:16.973Z,3.63
2023-01-13T23:19:43.791Z,3.57
2023-01-13T23:22:10.292Z,3.80
2023-01-13T23:24:37.175Z,3.69
2023-01-13T23:27:03.910Z,3.77
2023-01-13T23:29:30.532Z,3.42
2023-01-13T23:31:57.201Z,3.53
2023-01-13T23:34:23.746Z,3.74
2023-01-13T23:36:50.564Z,3.51
2023-01-13T23:39:17.246Z,3.64
2023-01-13T23:41:43.786Z,3.35
2023-01-13T23:44:10.441Z,3.23
2023-01-13T23:46:37.129Z,3.48
2023-01-13T23:49:03.832Z,3.59
2023-01-13T23:51:31.344Z,3.25
2023-01-13T23:53:59.340Z,3.29
2023-01-13T23:56:31.169Z,3.57
2023-01-13T23:58:58.769Z,3.21
